createdAt,value
2022-12-27T00:00:34.993Z,0.93
2022-12-27T00:03:14.862Z,0.70
2022-12-27T00:05:52.702Z,0.60
2022-12-27T00:08:24.347Z,0.77
2022-12-27T00:11:06.367Z,0.90
2022-12-27T00:13:48.429Z,0.67
2022-12-27T00:16:27.783Z,0.88
2022-12-27T00:19:02.220Z,0.70
2022-12-27T00:21:36.371Z,0.70
2022-12-27T00:24:17.640Z,0.70
2022-12-27T00:26:52.241Z,0.80
2022-12-27T00:29:25.905Z,0.52
2022-12-27T00:31:58.608Z,0.73
2022-12-27T00:34:32.508Z,0.60
2022-12-27T00:37:05.252Z,0.50
2022-12-27T00:39:49.003Z,0.53
2022-12-27T00:42:22.999Z,0.80
2022-12-27T00:44:56.909Z,0.60
2022-12-27T00:47:26.291Z,0.32
2022-12-27T00:49:58.155Z,0.43
2022-12-27T00:52:32.555Z,0.40
2022-12-27T00:55:13.656Z,0.50
2022-12-27T00:57:55.931Z,0.70
2022-12-27T01:00:26.656Z,0.52
2022-12-27T01:02:53.908Z,0.68
2022-12-27T01:05:26.077Z,0.60
2022-12-27T01:07:57.929Z,0.60
2022-12-27T01:10:31.628Z,0.50
2022-12-27T01:13:13.756Z,0.80
2022-12-27T01:15:46.499Z,0.57
2022-12-27T01:18:13.665Z,0.60
2022-12-27T01:20:52.105Z,0.43
2022-12-27T01:23:22.039Z,0.50
2022-12-27T01:26:06.722Z,0.55
2022-12-27T01:28:34.667Z,0.50
2022-12-27T01:31:14.500Z,0.40
2022-12-27T01:33:54.594Z,0.45
2022-12-27T01:36:28.737Z,0.50
2022-12-27T01:39:08.482Z,0.60
2022-12-27T01:42:09.700Z,0.47
2022-12-27T01:44:41.972Z,0.43
2022-12-27T01:47:12.365Z,0.50
2022-12-27T01:50:03.345Z,0.60
2022-12-27T01:52:47.902Z,0.50
2022-12-27T01:55:33.571Z,0.50
2022-12-27T01:58:41.756Z,0.50
2022-12-27T02:01:17.763Z,0.65
2022-12-27T02:04:12.447Z,0.40
2022-12-27T02:06:48.320Z,0.60
2022-12-27T02:09:43.313Z,0.52
2022-12-27T02:12:11.327Z,0.50
2022-12-27T02:14:45.913Z,1.02
2022-12-27T02:17:20.801Z,0.82
2022-12-27T02:20:05.939Z,0.75
2022-12-27T02:23:25.193Z,0.77
2022-12-27T02:27:04.448Z,0.60
2022-12-27T02:29:41.194Z,0.50
2022-12-27T02:32:38.834Z,0.70
2022-12-27T02:35:22.250Z,0.60
2022-12-27T02:38:05.329Z,0.57
2022-12-27T02:40:56.395Z,0.53
2022-12-27T02:43:51.106Z,0.52
2022-12-27T02:46:48.708Z,0.60
2022-12-27T02:49:49.174Z,0.47
2022-12-27T02:53:07.732Z,0.82
2022-12-27T02:56:15.330Z,0.60
2022-12-27T02:59:10.605Z,0.60
2022-12-27T03:02:22.833Z,0.60
2022-12-27T03:05:14.999Z,0.60
2022-12-27T03:08:21.537Z,0.65
2022-12-27T03:11:12.831Z,0.60
2022-12-27T03:14:36.812Z,0.50
2022-12-27T03:17:18.536Z,0.40
2022-12-27T03:20:18.829Z,0.50
2022-12-27T03:23:13.959Z,0.50
2022-12-27T03:25:52.177Z,0.57
2022-12-27T03:28:53.082Z,0.45
2022-12-27T03:31:47.114Z,0.40
2022-12-27T03:34:37.362Z,0.40
2022-12-27T03:37:40.215Z,0.63
2022-12-27T03:40:23.963Z,0.43
2022-12-27T03:43:13.871Z,0.60
2022-12-27T03:46:16.548Z,0.55
2022-12-27T03:48:55.291Z,0.50
2022-12-27T03:51:35.164Z,0.82
2022-12-27T03:54:14.584Z,0.70
2022-12-27T03:56:42.705Z,0.60
2022-12-27T03:59:25.021Z,0.65
2022-12-27T04:02:01.720Z,0.70
2022-12-27T04:04:32.865Z,1.80
2022-12-27T04:07:02.742Z,0.83
2022-12-27T04:09:48.654Z,0.90
2022-12-27T04:12:38.267Z,1.00
2022-12-27T04:15:43.014Z,0.93
2022-12-27T04:18:33.212Z,0.80
2022-12-27T04:21:26.285Z,1.03
2022-12-27T04:24:13.508Z,0.80
2022-12-27T04:27:13.654Z,0.68
2022-12-27T04:30:07.726Z,1.10
2022-12-27T04:33:16.534Z,0.63
2022-12-27T04:35:48.090Z,1.50
2022-12-27T04:38:25.236Z,1.48
2022-12-27T04:41:15.390Z,1.40
2022-12-27T04:44:05.806Z,1.10
2022-12-27T04:46:55.454Z,1.73
2022-12-27T04:49:48.084Z,1.30
2022-12-27T04:52:42.306Z,1.85
2022-12-27T04:55:16.846Z,1.85
2022-12-27T04:57:55.811Z,1.33
2022-12-27T05:00:45.943Z,1.80
2022-12-27T05:03:25.899Z,1.70
2022-12-27T05:06:00.301Z,1.90
2022-12-27T05:08:51.752Z,1.70
2022-12-27T05:11:40.641Z,1.30
2022-12-27T05:14:13.939Z,1.48
2022-12-27T05:16:46.395Z,1.63
2022-12-27T05:19:20.336Z,1.60
2022-12-27T05:22:20.183Z,1.90
2022-12-27T05:25:06.780Z,2.03
2022-12-27T05:27:44.378Z,1.73
2022-12-27T05:30:25.225Z,1.90
2022-12-27T05:33:02.328Z,1.60
2022-12-27T05:35:37.903Z,1.67
2022-12-27T05:38:13.789Z,1.60
2022-12-27T05:40:45.231Z,1.60
2022-12-27T05:43:15.592Z,1.43
2022-12-27T05:45:48.503Z,2.13
2022-12-27T05:48:27.649Z,2.00
2022-12-27T05:51:09.459Z,2.25
2022-12-27T05:53:45.943Z,2.40
2022-12-27T05:56:27.735Z,2.00
2022-12-27T05:58:56.762Z,2.00
2022-12-27T06:01:31.493Z,2.38
2022-12-27T06:04:15.319Z,2.28
2022-12-27T06:06:50.080Z,2.40
2022-12-27T06:09:28.010Z,2.53
2022-12-27T06:11:58.865Z,2.22
2022-12-27T06:14:28.329Z,2.42
2022-12-27T06:17:09.977Z,1.95
2022-12-27T06:19:46.725Z,2.90
2022-12-27T06:22:17.234Z,2.53
2022-12-27T06:24:54.086Z,2.38
2022-12-27T06:27:32.625Z,2.72
2022-12-27T06:30:09.377Z,3.15
2022-12-27T06:32:42.079Z,2.97
2022-12-27T06:35:27.894Z,2.70
2022-12-27T06:38:06.197Z,2.80
2022-12-27T06:40:35.781Z,2.70
2022-12-27T06:43:13.268Z,3.38
2022-12-27T06:46:02.197Z,2.72
2022-12-27T06:48:38.362Z,2.87
2022-12-27T06:51:17.559Z,2.65
2022-12-27T06:53:47.707Z,3.03
2022-12-27T06:56:30.492Z,3.20
2022-12-27T06:59:21.715Z,3.05
2022-12-27T07:01:57.901Z,3.60
2022-12-27T07:04:25.324Z,3.50
2022-12-27T07:07:00.046Z,3.78
2022-12-27T07:09:30.573Z,4.68
2022-12-27T07:11:57.700Z,5.25
2022-12-27T07:14:33.191Z,7.23
2022-12-27T07:17:03.197Z,6.30
2022-12-27T07:19:33.311Z,6.00
2022-12-27T07:22:05.621Z,5.75
2022-12-27T07:24:39.174Z,5.55
2022-12-27T07:27:15.240Z,6.10
2022-12-27T07:29:53.269Z,6.65
2022-12-27T07:32:29.882Z,6.90
2022-12-27T07:35:02.084Z,7.10
2022-12-27T07:37:30.186Z,6.65
2022-12-27T07:40:03.439Z,6.57
2022-12-27T07:42:36.242Z,6.78
2022-12-27T07:45:07.106Z,6.70
2022-12-27T07:47:45.673Z,7.35
2022-12-27T07:50:15.523Z,7.07
2022-12-27T07:52:52.525Z,7.17
2022-12-27T07:55:24.747Z,8.63
2022-12-27T07:57:52.802Z,14.23
2022-12-27T08:00:23.939Z,12.18
2022-12-27T08:02:53.445Z,10.40
2022-12-27T08:05:41.357Z,10.97
2022-12-27T08:08:32.233Z,8.75
2022-12-27T08:11:08.265Z,7.38
2022-12-27T08:13:47.747Z,5.75
2022-12-27T08:16:22.076Z,6.47
2022-12-27T08:18:56.025Z,5.63
2022-12-27T08:21:23.902Z,4.13
2022-12-27T08:23:57.939Z,4.32
2022-12-27T08:26:28.357Z,2.88
2022-12-27T08:29:00.301Z,3.60
2022-12-27T08:31:44.492Z,3.40
2022-12-27T08:34:16.922Z,4.30
2022-12-27T08:36:57.208Z,3.15
2022-12-27T08:39:27.724Z,3.35
2022-12-27T08:42:04.742Z,2.70
2022-12-27T08:44:34.449Z,2.40
2022-12-27T08:47:21.650Z,2.90
2022-12-27T08:49:54.909Z,2.08
2022-12-27T08:52:26.876Z,1.70
2022-12-27T08:55:02.231Z,1.58
2022-12-27T08:57:40.143Z,1.63
2022-12-27T09:04:24.405Z,1.25
2022-12-27T09:06:57.770Z,0.70
2022-12-27T09:09:27.352Z,0.38
2022-12-27T09:12:05.748Z,0.30
2022-12-27T09:14:59.059Z,0.30
2022-12-27T09:17:31.502Z,0.35
2022-12-27T09:20:15.568Z,0.30
2022-12-27T09:23:02.051Z,0.30
2022-12-27T09:25:33.128Z,0.30
2022-12-27T09:30:57.384Z,0.30
2022-12-27T09:33:31.697Z,0.20
2022-12-27T09:36:21.471Z,0.40
2022-12-27T09:38:57.601Z,0.30
2022-12-27T09:45:19.683Z,0.30
2022-12-27T09:48:04.336Z,0.28
2022-12-27T09:50:44.084Z,0.32
2022-12-27T09:53:26.627Z,0.20
2022-12-27T09:56:21.889Z,0.10
2022-12-27T09:59:01.018Z,0.20
2022-12-27T10:01:29.761Z,0.10
2022-12-27T10:04:02.726Z,0.20
2022-12-27T10:06:45.332Z,0.30
2022-12-27T10:09:34.730Z,0.17
2022-12-27T10:12:44.902Z,0.10
2022-12-27T10:15:35.137Z,0.20
2022-12-27T10:18:30.766Z,0.20
2022-12-27T10:21:18.937Z,0.10
2022-12-27T10:24:03.798Z,0.20
2022-12-27T10:26:35.066Z,0.10
2022-12-27T10:29:38.787Z,0.10
2022-12-27T10:32:21.475Z,0.10
2022-12-27T10:35:15.114Z,0.10
2022-12-27T10:37:49.504Z,0.10
2022-12-27T10:40:54.018Z,0.20
2022-12-27T10:43:39.011Z,0.10
2022-12-27T10:46:18.548Z,0.13
2022-12-27T10:51:52.131Z,0.10
2022-12-27T10:54:23.812Z,0.10
2022-12-27T10:56:51.448Z,0.20
2022-12-27T10:59:33.639Z,0.13
2022-12-27T11:02:01.743Z,0.23
2022-12-27T11:04:31.779Z,0.10
2022-12-27T11:07:03.103Z,0.20
2022-12-27T11:09:35.589Z,0.20
2022-12-27T11:12:22.435Z,0.10
2022-12-27T11:14:57.804Z,0.10
2022-12-27T11:17:45.901Z,0.10
2022-12-27T11:20:30.804Z,0.10
2022-12-27T11:23:05.280Z,0.10
2022-12-27T11:25:36.050Z,0.10
2022-12-27T11:28:40.483Z,0.10
2022-12-27T11:31:26.774Z,0.10
2022-12-27T11:38:30.175Z,0.13
2022-12-27T11:42:09.690Z,0.20
2022-12-27T11:44:48.367Z,0.10
2022-12-27T11:47:31.557Z,0.15
2022-12-27T11:50:20.116Z,0.10
2022-12-27T11:52:58.458Z,0.20
2022-12-27T11:55:50.040Z,0.20
2022-12-27T11:58:41.010Z,0.10
2022-12-27T12:01:49.644Z,0.20
2022-12-27T12:04:44.560Z,0.10
2022-12-27T12:07:35.123Z,0.10
2022-12-27T12:10:32.113Z,0.10
2022-12-27T12:13:50.108Z,0.30
2022-12-27T12:17:08.869Z,0.20
2022-12-27T12:19:55.278Z,0.10
2022-12-27T12:22:39.955Z,0.10
2022-12-27T12:25:09.785Z,0.10
2022-12-27T12:27:47.065Z,0.10
2022-12-27T12:30:42.341Z,0.10
2022-12-27T12:33:27.799Z,0.10
2022-12-27T12:36:45.567Z,0.10
2022-12-27T12:39:26.170Z,0.10
2022-12-27T12:42:15.222Z,0.30
2022-12-27T12:45:02.211Z,0.10
2022-12-27T12:47:55.377Z,0.20
2022-12-27T12:50:43.611Z,0.10
2022-12-27T12:53:33.223Z,0.10
2022-12-27T12:56:32.601Z,0.10
2022-12-27T12:59:22.394Z,0.20
2022-12-27T13:02:00.422Z,0.10
2022-12-27T13:05:14.213Z,0.10
2022-12-27T13:08:19.745Z,0.20
2022-12-27T13:11:08.457Z,0.10
2022-12-27T13:13:49.936Z,0.17
2022-12-27T13:16:52.374Z,0.30
2022-12-27T13:19:50.120Z,0.20
2022-12-27T13:22:29.793Z,0.20
2022-12-27T13:25:21.641Z,0.20
2022-12-27T13:28:25.313Z,0.20
2022-12-27T13:31:39.872Z,0.20
2022-12-27T13:34:36.302Z,0.10
2022-12-27T13:37:37.864Z,0.10
2022-12-27T13:40:44.781Z,0.10
2022-12-27T13:43:38.027Z,0.10
2022-12-27T13:46:42.072Z,0.10
2022-12-27T13:49:46.292Z,0.10
2022-12-27T13:52:14.549Z,0.10
2022-12-27T13:55:31.041Z,0.20
2022-12-27T13:58:26.266Z,0.10
2022-12-27T14:01:25.762Z,0.10
2022-12-27T14:04:31.487Z,0.10
2022-12-27T14:07:37.307Z,0.20
2022-12-27T14:10:22.807Z,0.10
2022-12-27T14:13:05.595Z,0.20
2022-12-27T14:15:57.542Z,0.20
2022-12-27T14:18:36.528Z,0.13
2022-12-27T14:22:05.467Z,0.20
2022-12-27T14:24:54.918Z,0.10
2022-12-27T14:27:53.831Z,0.10
2022-12-27T14:30:41.384Z,0.10
2022-12-27T14:33:47.749Z,0.10
2022-12-27T14:36:43.093Z,0.10
2022-12-27T14:39:37.292Z,0.13
2022-12-27T14:42:44.698Z,0.17
2022-12-27T14:45:28.183Z,0.20
2022-12-27T14:48:27.210Z,0.20
2022-12-27T14:51:58.652Z,0.20
2022-12-27T14:54:58.259Z,0.13
2022-12-27T14:57:33.867Z,0.25
2022-12-27T15:00:09.042Z,0.30
2022-12-27T15:02:53.965Z,0.40
2022-12-27T15:05:39.873Z,0.40
2022-12-27T15:08:48.633Z,0.70
2022-12-27T15:11:40.173Z,0.88
2022-12-27T15:14:38.874Z,1.00
2022-12-27T15:17:38.095Z,0.55
2022-12-27T15:20:44.595Z,0.50
2022-12-27T15:23:18.943Z,0.77
2022-12-27T15:26:23.008Z,0.60
2022-12-27T15:29:11.580Z,0.57
2022-12-27T15:32:06.214Z,0.60
2022-12-27T15:34:44.422Z,0.40
2022-12-27T15:37:48.463Z,0.50
2022-12-27T15:40:33.425Z,0.30
2022-12-27T15:43:13.161Z,0.30
2022-12-27T15:46:23.329Z,0.30
2022-12-27T15:49:07.686Z,0.35
2022-12-27T15:52:16.953Z,0.10
2022-12-27T15:55:20.922Z,0.10
2022-12-27T15:58:05.393Z,0.10
2022-12-27T16:00:44.926Z,0.10
2022-12-27T16:04:04.938Z,0.05
2022-12-27T16:06:37.690Z,0.00
2022-12-27T16:09:28.183Z,0.10
2022-12-27T16:12:40.963Z,0.10
2022-12-27T16:15:57.951Z,0.30
2022-12-27T16:18:37.416Z,0.10
2022-12-27T16:21:20.336Z,0.10
2022-12-27T16:24:25.727Z,0.10
2022-12-27T16:27:06.748Z,0.10
2022-12-27T16:29:49.687Z,0.10
2022-12-27T16:32:24.957Z,0.10
2022-12-27T16:35:04.911Z,0.10
2022-12-27T16:37:45.127Z,0.20
2022-12-27T16:40:54.578Z,0.20
2022-12-27T16:43:47.000Z,0.20
2022-12-27T16:46:39.303Z,0.38
2022-12-27T16:49:42.276Z,0.40
2022-12-27T16:52:34.366Z,0.20
2022-12-27T16:55:38.871Z,0.20
2022-12-27T16:58:31.792Z,0.10
2022-12-27T17:01:27.791Z,0.10
2022-12-27T17:04:04.657Z,0.20
2022-12-27T17:06:34.769Z,0.10
2022-12-27T17:09:11.891Z,0.10
2022-12-27T17:11:48.325Z,0.15
2022-12-27T17:14:31.219Z,0.43
2022-12-27T17:17:25.075Z,0.10
2022-12-27T17:20:08.035Z,0.10
2022-12-27T17:22:52.561Z,0.20
2022-12-27T17:25:44.857Z,0.20
2022-12-27T17:28:36.953Z,0.20
2022-12-27T17:31:39.026Z,0.30
2022-12-27T17:34:41.996Z,0.20
2022-12-27T17:37:35.217Z,0.30
2022-12-27T17:40:19.124Z,0.30
2022-12-27T17:43:10.816Z,0.40
2022-12-27T17:46:05.020Z,0.33
2022-12-27T17:48:36.478Z,0.30
2022-12-27T17:51:21.436Z,0.40
2022-12-27T17:54:13.347Z,0.30
2022-12-27T17:57:18.815Z,0.40
2022-12-27T17:59:54.740Z,0.40
2022-12-27T18:02:39.268Z,0.35
2022-12-27T18:05:17.977Z,0.45
2022-12-27T18:07:55.029Z,0.80
2022-12-27T18:10:33.107Z,1.67
2022-12-27T18:13:05.847Z,2.17
2022-12-27T18:15:44.516Z,2.30
2022-12-27T18:18:42.065Z,2.70
2022-12-27T18:21:34.162Z,3.83
2022-12-27T18:24:23.733Z,4.30
2022-12-27T18:27:04.374Z,5.57
2022-12-27T18:29:34.488Z,8.73
2022-12-27T18:32:10.275Z,9.60
2022-12-27T18:34:55.198Z,7.30
2022-12-27T18:37:24.571Z,4.50
2022-12-27T18:40:00.543Z,4.40
2022-12-27T18:42:37.538Z,3.88
2022-12-27T18:45:26.352Z,2.63
2022-12-27T18:47:56.954Z,2.42
2022-12-27T18:50:32.174Z,1.77
2022-12-27T18:53:28.388Z,1.90
2022-12-27T18:56:06.540Z,1.48
2022-12-27T18:58:41.009Z,1.23
2022-12-27T19:01:23.385Z,1.30
2022-12-27T19:04:15.333Z,1.30
2022-12-27T19:07:15.265Z,0.93
2022-12-27T19:09:53.550Z,0.90
2022-12-27T19:12:42.094Z,0.50
2022-12-27T19:15:29.103Z,0.50
2022-12-27T19:18:07.059Z,0.30
2022-12-27T19:20:40.062Z,0.30
2022-12-27T19:23:40.259Z,0.40
2022-12-27T19:26:32.470Z,0.40
2022-12-27T19:29:11.355Z,0.30
2022-12-27T19:31:43.249Z,0.20
2022-12-27T19:38:47.548Z,0.20
2022-12-27T19:41:31.786Z,0.20
2022-12-27T19:44:03.019Z,0.20
2022-12-27T19:46:34.268Z,0.20
2022-12-27T19:51:56.064Z,0.30
2022-12-27T19:54:36.393Z,0.40
2022-12-27T19:57:14.325Z,0.40
2022-12-27T20:00:12.875Z,0.40
2022-12-27T20:02:46.804Z,0.40
2022-12-27T20:06:11.197Z,0.40
2022-12-27T20:08:22.942Z,0.60
2022-12-27T20:10:58.655Z,0.40
2022-12-27T20:13:26.653Z,1.13
2022-12-27T20:15:56.003Z,0.95
2022-12-27T20:18:37.222Z,1.40
2022-12-27T20:21:07.568Z,4.13
2022-12-27T20:23:40.980Z,4.95
2022-12-27T20:26:25.023Z,3.90
2022-12-27T20:29:05.731Z,4.70
2022-12-27T20:31:45.370Z,4.85
2022-12-27T20:34:23.542Z,5.38
2022-12-27T20:36:59.316Z,4.93
2022-12-27T20:39:26.508Z,3.93
2022-12-27T20:42:05.911Z,5.10
2022-12-27T20:45:07.004Z,4.22
2022-12-27T20:47:44.107Z,5.22
2022-12-27T20:50:21.936Z,6.38
2022-12-27T20:52:56.866Z,6.37
2022-12-27T20:55:31.139Z,6.53
2022-12-27T20:58:11.196Z,6.50
2022-12-27T21:00:43.135Z,5.85
2022-12-27T21:03:13.016Z,5.55
2022-12-27T21:05:41.587Z,4.03
2022-12-27T21:08:12.997Z,4.20
2022-12-27T21:10:53.721Z,2.92
2022-12-27T21:13:23.581Z,1.90
2022-12-27T21:15:53.458Z,1.90
2022-12-27T21:18:47.460Z,1.73
2022-12-27T21:21:27.347Z,1.52
2022-12-27T21:24:07.789Z,1.40
2022-12-27T21:26:44.823Z,1.10
2022-12-27T21:29:12.395Z,1.08
2022-12-27T21:34:37.152Z,1.48
2022-12-27T21:37:13.419Z,1.77
2022-12-27T21:39:47.136Z,1.80
2022-12-27T21:42:20.720Z,1.52
2022-12-27T21:45:00.019Z,1.33
2022-12-27T21:47:31.622Z,1.15
2022-12-27T21:50:02.817Z,1.10
2022-12-27T21:52:42.944Z,1.30
2022-12-27T21:55:16.415Z,1.20
2022-12-27T21:57:46.762Z,1.07
2022-12-27T22:04:39.521Z,1.70
2022-12-27T22:07:17.459Z,1.30
2022-12-27T22:10:59.414Z,1.50
2022-12-27T22:14:13.860Z,2.07
2022-12-27T22:16:43.637Z,2.33
2022-12-27T22:19:13.903Z,2.33
2022-12-27T22:21:43.959Z,2.40
2022-12-27T22:24:19.591Z,2.20
2022-12-27T22:26:51.341Z,2.80
2022-12-27T22:29:29.315Z,2.45
2022-12-27T22:32:12.319Z,2.60
2022-12-27T22:37:50.222Z,2.70
2022-12-27T22:40:30.992Z,2.00
2022-12-27T22:43:06.353Z,1.90
2022-12-27T22:45:35.376Z,2.47
2022-12-27T22:48:16.779Z,2.42
2022-12-27T22:50:50.393Z,1.70
2022-12-27T22:53:22.566Z,1.83
2022-12-27T22:56:17.447Z,2.35
2022-12-27T22:58:49.634Z,1.90
2022-12-27T23:01:27.658Z,1.70
2022-12-27T23:04:00.151Z,1.75
2022-12-27T23:06:36.695Z,1.50
2022-12-27T23:09:13.368Z,1.67
2022-12-27T23:11:49.662Z,1.48
2022-12-27T23:14:22.581Z,1.80
2022-12-27T23:16:54.565Z,1.70
2022-12-27T23:19:32.135Z,1.93
2022-12-27T23:22:15.726Z,1.40
2022-12-27T23:25:03.079Z,1.55
2022-12-27T23:27:42.513Z,2.50
2022-12-27T23:30:20.991Z,2.25
2022-12-27T23:32:53.191Z,2.83
2022-12-27T23:35:27.444Z,3.13
2022-12-27T23:37:54.613Z,5.85
2022-12-27T23:40:32.234Z,7.32
2022-12-27T23:43:50.508Z,7.60
2022-12-27T23:46:32.631Z,7.20
2022-12-27T23:49:45.388Z,6.68
2022-12-27T23:52:12.641Z,7.70
2022-12-27T23:54:46.254Z,7.78
2022-12-27T23:57:19.965Z,9.63
2022-12-27T23:59:54.640Z,11.93
